createdAt,value
2023-02-11T00:00:40.589Z,25.70
2023-02-11T00:03:07.884Z,23.95
2023-02-11T00:05:35.219Z,29.00
2023-02-11T00:08:03.866Z,27.45
2023-02-11T00:10:31.038Z,29.55
2023-02-11T00:12:57.977Z,25.73
2023-02-11T00:15:25.029Z,23.92
2023-02-11T00:17:52.332Z,30.60
2023-02-11T00:20:19.494Z,25.00
2023-02-11T00:22:46.400Z,26.90
2023-02-11T00:25:14.784Z,31.15
2023-02-11T00:27:41.683Z,27.95
2023-02-11T00:30:10.463Z,27.83
2023-02-11T00:32:38.482Z,27.35
2023-02-11T00:35:06.477Z,29.27
2023-02-11T00:37:36.578Z,31.05
2023-02-11T00:40:06.660Z,28.05
2023-02-11T00:42:37.998Z,23.60
2023-02-11T00:45:05.482Z,27.40
2023-02-11T00:47:32.408Z,27.25
2023-02-11T00:50:00.988Z,24.13
2023-02-11T00:52:28.194Z,21.30
2023-02-11T00:54:55.108Z,26.50
2023-02-11T00:57:22.024Z,24.17
2023-02-11T00:59:51.708Z,27.25
2023-02-11T01:02:18.965Z,24.17
2023-02-11T01:04:45.900Z,27.40
2023-02-11T01:07:12.859Z,27.60
2023-02-11T01:09:39.786Z,21.35
2023-02-11T01:12:07.071Z,27.05
2023-02-11T01:14:34.030Z,24.60
2023-02-11T01:17:02.341Z,26.58
2023-02-11T01:19:29.309Z,21.42
2023-02-11T01:21:56.258Z,28.13
2023-02-11T01:24:23.187Z,23.52
2023-02-11T01:26:52.979Z,28.00
2023-02-11T01:29:20.277Z,29.75
2023-02-11T01:31:47.507Z,24.77
2023-02-11T01:34:16.201Z,22.88
2023-02-11T01:36:43.277Z,32.33
2023-02-11T01:39:10.384Z,27.92
2023-02-11T01:41:37.757Z,26.58
2023-02-11T01:44:28.455Z,26.67
2023-02-11T01:46:55.930Z,24.40
2023-02-11T01:49:27.842Z,27.85
2023-02-11T01:51:59.401Z,27.63
2023-02-11T01:54:48.730Z,28.23
2023-02-11T01:57:22.866Z,26.30
2023-02-11T01:59:58.206Z,31.75
2023-02-11T02:05:05.965Z,25.65
2023-02-11T02:07:37.352Z,24.52
2023-02-11T02:10:09.777Z,30.08
2023-02-11T02:12:37.004Z,28.23
2023-02-11T02:15:27.274Z,27.25
2023-02-11T02:18:11.402Z,26.15
2023-02-11T02:21:17.969Z,22.75
2023-02-11T02:27:06.807Z,27.60
2023-02-11T02:30:01.001Z,23.27
2023-02-11T02:32:39.493Z,26.15
2023-02-11T02:35:15.655Z,28.80
2023-02-11T02:37:51.577Z,24.73
2023-02-11T02:40:23.564Z,26.90
2023-02-11T02:42:51.480Z,29.65
2023-02-11T02:45:19.493Z,27.10
2023-02-11T02:47:47.902Z,25.67
2023-02-11T02:50:17.876Z,27.13
2023-02-11T02:52:57.784Z,31.05
2023-02-11T02:55:54.634Z,25.52
2023-02-11T02:58:45.980Z,24.67
2023-02-11T03:01:25.641Z,30.10
2023-02-11T03:04:02.825Z,25.98
2023-02-11T03:06:34.349Z,29.20
2023-02-11T03:09:08.489Z,30.90
2023-02-11T03:11:37.847Z,24.50
2023-02-11T03:14:07.951Z,27.48
2023-02-11T03:16:39.248Z,24.55
2023-02-11T03:19:12.753Z,31.23
2023-02-11T03:21:42.056Z,22.55
2023-02-11T03:24:13.462Z,30.35
2023-02-11T03:26:44.403Z,25.08
2023-02-11T03:29:17.967Z,30.17
2023-02-11T03:31:52.997Z,30.60
2023-02-11T03:34:28.081Z,23.52
2023-02-11T03:36:59.884Z,29.55
2023-02-11T03:39:32.045Z,28.75
2023-02-11T03:42:02.014Z,28.77
2023-02-11T03:44:34.830Z,25.90
2023-02-11T03:47:05.567Z,28.80
2023-02-11T03:49:36.530Z,27.02
2023-02-11T03:52:05.962Z,24.45
2023-02-11T03:54:33.305Z,27.75
2023-02-11T03:57:01.845Z,27.50
2023-02-11T03:59:29.105Z,33.88
2023-02-11T04:01:56.204Z,29.55
2023-02-11T04:04:23.312Z,32.42
2023-02-11T04:06:51.713Z,31.30
2023-02-11T04:09:18.705Z,27.15
2023-02-11T04:11:45.626Z,30.17
2023-02-11T04:14:12.544Z,34.40
2023-02-11T04:16:39.532Z,34.35
2023-02-11T04:19:06.550Z,30.95
2023-02-11T04:21:33.458Z,31.58
2023-02-11T04:24:01.756Z,32.47
2023-02-11T04:26:28.663Z,28.38
2023-02-11T04:28:55.647Z,31.10
2023-02-11T04:31:22.782Z,32.50
2023-02-11T04:33:49.742Z,29.80
2023-02-11T04:36:16.632Z,32.85
2023-02-11T04:38:43.535Z,28.08
2023-02-11T04:41:11.822Z,36.90
2023-02-11T04:43:38.790Z,29.35
2023-02-11T04:46:05.897Z,29.48
2023-02-11T04:48:32.864Z,28.85
2023-02-11T04:50:59.766Z,29.05
2023-02-11T04:53:26.776Z,29.80
2023-02-11T04:55:53.768Z,30.38
2023-02-11T04:58:22.134Z,27.45
2023-02-11T05:00:51.378Z,28.73
2023-02-11T05:03:18.591Z,28.67
2023-02-11T05:05:45.608Z,34.42
2023-02-11T05:08:13.432Z,38.63
2023-02-11T05:10:40.332Z,30.85
2023-02-11T05:13:07.239Z,29.48
2023-02-11T05:15:35.607Z,29.90
2023-02-11T05:18:02.594Z,28.25
2023-02-11T05:20:29.583Z,28.25
2023-02-11T05:22:56.499Z,28.95
2023-02-11T05:25:23.395Z,30.75
2023-02-11T05:27:50.316Z,34.58
2023-02-11T05:30:17.399Z,30.23
2023-02-11T05:32:45.653Z,34.05
2023-02-11T05:35:12.659Z,34.03
2023-02-11T05:37:39.749Z,32.88
2023-02-11T05:40:07.682Z,36.95
2023-02-11T05:42:37.677Z,46.45
2023-02-11T05:45:05.159Z,43.90
2023-02-11T05:47:32.313Z,35.90
2023-02-11T05:50:00.600Z,30.48
2023-02-11T05:52:27.555Z,32.30
2023-02-11T05:54:54.445Z,30.45
2023-02-11T05:57:21.350Z,29.55
2023-02-11T05:59:48.281Z,28.85
2023-02-11T06:02:15.740Z,28.95
2023-02-11T06:04:44.323Z,32.88
2023-02-11T06:07:12.811Z,29.75
2023-02-11T06:09:39.963Z,28.23
2023-02-11T06:12:07.220Z,26.40
2023-02-11T06:14:34.386Z,26.60
2023-02-11T06:17:01.748Z,28.85
2023-02-11T06:19:28.788Z,31.83
2023-02-11T06:21:56.343Z,30.05
2023-02-11T06:24:51.087Z,28.52
2023-02-11T06:27:12.771Z,33.70
2023-02-11T06:29:39.714Z,30.52
2023-02-11T06:32:08.664Z,28.20
2023-02-11T06:34:38.892Z,27.67
2023-02-11T06:37:06.386Z,34.50
2023-02-11T06:39:34.759Z,49.25
2023-02-11T06:42:02.902Z,96.53
2023-02-11T06:44:29.864Z,70.10
2023-02-11T06:46:56.891Z,47.85
2023-02-11T06:49:23.967Z,47.75
2023-02-11T06:51:50.890Z,40.95
2023-02-11T06:54:17.907Z,33.65
2023-02-11T06:56:46.324Z,34.28
2023-02-11T06:59:16.359Z,44.45
2023-02-11T07:01:43.468Z,35.20
2023-02-11T07:04:10.574Z,29.83
2023-02-11T07:06:37.705Z,28.63
2023-02-11T07:09:05.520Z,39.70
2023-02-11T07:11:33.240Z,31.13
2023-02-11T07:14:04.598Z,27.00
2023-02-11T07:16:32.376Z,39.60
2023-02-11T07:18:59.470Z,31.42
2023-02-11T07:21:26.748Z,42.33
2023-02-11T07:23:53.984Z,31.92
2023-02-11T07:26:23.258Z,30.67
2023-02-11T07:28:51.435Z,26.70
2023-02-11T07:31:22.066Z,33.90
2023-02-11T07:33:49.351Z,34.40
2023-02-11T07:36:16.858Z,30.52
2023-02-11T07:38:44.478Z,30.80
2023-02-11T07:41:15.216Z,29.17
2023-02-11T07:43:43.231Z,36.33
2023-02-11T07:46:12.933Z,36.97
2023-02-11T07:48:41.306Z,34.72
2023-02-11T07:51:10.030Z,24.23
2023-02-11T07:53:37.019Z,26.95
2023-02-11T07:56:05.260Z,26.13
2023-02-11T07:58:32.911Z,20.95
2023-02-11T08:01:02.308Z,24.02
2023-02-11T08:03:29.461Z,20.02
2023-02-11T08:05:58.043Z,20.98
2023-02-11T08:08:26.825Z,20.75
2023-02-11T08:10:53.791Z,26.52
2023-02-11T08:13:20.765Z,22.88
2023-02-11T08:15:50.849Z,17.77
2023-02-11T08:18:19.913Z,23.52
2023-02-11T08:20:46.886Z,17.85
2023-02-11T08:23:18.247Z,21.17
2023-02-11T08:25:45.134Z,20.38
2023-02-11T08:28:12.519Z,20.38
2023-02-11T08:30:39.536Z,25.30
2023-02-11T08:33:06.495Z,27.23
2023-02-11T08:35:35.266Z,28.00
2023-02-11T08:38:02.166Z,28.80
2023-02-11T08:40:30.492Z,31.88
2023-02-11T08:42:57.379Z,28.08
2023-02-11T08:45:24.312Z,31.15
2023-02-11T08:47:51.294Z,27.70
2023-02-11T08:50:18.310Z,25.17
2023-02-11T08:52:47.584Z,24.33
2023-02-11T08:55:14.632Z,23.45
2023-02-11T08:57:43.012Z,27.63
2023-02-11T09:00:11.216Z,24.10
2023-02-11T09:02:38.262Z,23.35
2023-02-11T09:05:05.881Z,26.83
2023-02-11T09:07:32.825Z,27.23
2023-02-11T09:09:59.781Z,25.75
2023-02-11T09:12:26.689Z,25.20
2023-02-11T09:14:55.254Z,23.90
2023-02-11T09:17:22.223Z,30.20
2023-02-11T09:19:49.122Z,22.60
2023-02-11T09:22:18.640Z,29.08
2023-02-11T09:24:45.570Z,24.33
2023-02-11T09:27:12.459Z,25.20
2023-02-11T09:29:39.381Z,24.42
2023-02-11T09:32:10.842Z,23.40
2023-02-11T09:34:38.004Z,24.70
2023-02-11T09:37:04.974Z,22.40
2023-02-11T09:39:31.864Z,25.27
2023-02-11T09:42:30.407Z,25.13
2023-02-11T09:44:58.091Z,24.90
2023-02-11T09:47:33.083Z,26.67
2023-02-11T09:50:04.267Z,24.98
2023-02-11T09:52:37.097Z,26.17
2023-02-11T09:55:06.425Z,24.30
2023-02-11T09:57:35.696Z,26.52
2023-02-11T10:00:17.458Z,29.33
2023-02-11T10:02:58.005Z,29.83
2023-02-11T10:05:40.016Z,22.92
2023-02-11T10:08:15.897Z,31.02
2023-02-11T10:10:50.985Z,23.42
2023-02-11T10:13:35.990Z,24.42
2023-02-11T10:16:14.878Z,23.17
2023-02-11T10:19:00.325Z,23.90
2023-02-11T10:21:35.011Z,27.45
2023-02-11T10:24:05.675Z,27.92
2023-02-11T10:26:34.276Z,26.05
2023-02-11T10:29:10.910Z,22.38
2023-02-11T10:31:42.478Z,24.55
2023-02-11T10:34:13.016Z,24.90
2023-02-11T10:36:42.687Z,23.45
2023-02-11T10:39:14.888Z,23.10
2023-02-11T10:41:44.851Z,23.95
2023-02-11T10:44:23.338Z,24.58
2023-02-11T10:46:51.374Z,25.88
2023-02-11T10:49:40.255Z,24.90
2023-02-11T10:52:15.891Z,25.42
2023-02-11T10:54:55.276Z,22.48
2023-02-11T10:57:23.116Z,25.77
2023-02-11T10:59:55.577Z,26.23
2023-02-11T11:02:31.966Z,23.27
2023-02-11T11:05:03.190Z,25.92
2023-02-11T11:07:31.679Z,24.75
2023-02-11T11:10:02.577Z,24.60
2023-02-11T11:12:33.392Z,24.27
2023-02-11T11:15:02.125Z,23.70
2023-02-11T11:17:29.772Z,25.55
2023-02-11T11:20:18.938Z,24.15
2023-02-11T11:22:47.390Z,24.70
2023-02-11T11:25:26.651Z,27.35
2023-02-11T11:27:56.082Z,24.30
2023-02-11T11:30:27.041Z,23.95
2023-02-11T11:32:54.727Z,22.00
2023-02-11T11:35:26.514Z,32.42
2023-02-11T11:37:55.238Z,22.73
2023-02-11T11:40:25.814Z,23.73
2023-02-11T11:43:16.696Z,23.33
2023-02-11T11:45:54.375Z,21.75
2023-02-11T11:48:24.048Z,26.58
2023-02-11T11:50:54.932Z,22.80
2023-02-11T11:53:28.588Z,19.45
2023-02-11T11:56:00.738Z,26.27
2023-02-11T11:58:29.124Z,20.48
2023-02-11T12:01:06.652Z,20.55
2023-02-11T12:04:02.525Z,18.95
2023-02-11T12:06:39.347Z,24.08
2023-02-11T12:09:15.475Z,18.50
2023-02-11T12:11:58.853Z,20.00
2023-02-11T12:14:38.214Z,19.02
2023-02-11T12:17:13.924Z,19.45
2023-02-11T12:19:56.334Z,20.02
2023-02-11T12:22:38.045Z,19.75
2023-02-11T12:25:25.326Z,19.98
2023-02-11T12:28:03.252Z,24.70
2023-02-11T12:30:44.127Z,22.65
2023-02-11T12:33:24.777Z,22.83
2023-02-11T12:35:58.491Z,19.95
2023-02-11T12:38:52.960Z,21.13
2023-02-11T12:41:59.667Z,23.05
2023-02-11T12:47:10.156Z,20.75
2023-02-11T12:49:53.559Z,22.00
2023-02-11T12:52:40.942Z,20.10
2023-02-11T12:55:20.082Z,23.17
2023-02-11T12:57:48.867Z,22.92
2023-02-11T13:00:19.012Z,20.60
2023-02-11T13:02:56.489Z,25.00
2023-02-11T13:05:28.402Z,21.08
2023-02-11T13:08:02.076Z,24.45
2023-02-11T13:10:34.036Z,22.00
2023-02-11T13:13:18.555Z,23.30
2023-02-11T13:15:50.207Z,20.10
2023-02-11T13:18:30.059Z,18.48
2023-02-11T13:21:05.111Z,24.27
2023-02-11T13:23:46.781Z,20.00
2023-02-11T13:26:23.551Z,23.85
2023-02-11T13:28:55.118Z,22.15
2023-02-11T13:31:26.745Z,23.25
2023-02-11T13:33:54.265Z,21.85
2023-02-11T13:36:26.658Z,49.75
2023-02-11T13:39:02.716Z,22.25
2023-02-11T13:41:34.308Z,18.75
2023-02-11T13:44:22.195Z,17.20
2023-02-11T13:46:54.288Z,19.60
2023-02-11T13:49:24.582Z,21.98
2023-02-11T13:51:53.629Z,19.33
2023-02-11T13:54:28.493Z,21.02
2023-02-11T13:57:41.624Z,17.55
2023-02-11T14:00:47.511Z,16.80
2023-02-11T14:03:48.372Z,17.30
2023-02-11T14:06:40.646Z,17.10
2023-02-11T14:09:30.191Z,19.25
2023-02-11T14:12:30.464Z,16.20
2023-02-11T14:15:21.723Z,21.95
2023-02-11T14:17:50.218Z,16.92
2023-02-11T14:20:39.300Z,18.25
2023-02-11T14:23:07.290Z,23.23
2023-02-11T14:25:34.424Z,26.58
2023-02-11T14:28:11.117Z,55.28
2023-02-11T14:30:57.487Z,243.43
2023-02-11T14:33:43.487Z,255.45
2023-02-11T14:36:23.055Z,350.08
2023-02-11T14:39:01.790Z,109.47
2023-02-11T14:41:32.069Z,59.78
2023-02-11T14:44:03.697Z,59.10
2023-02-11T14:46:32.977Z,31.58
2023-02-11T14:49:03.746Z,22.27
2023-02-11T14:51:34.969Z,55.38
2023-02-11T14:54:13.358Z,64.63
2023-02-11T14:56:40.300Z,24.80
2023-02-11T14:59:16.998Z,25.63
2023-02-11T15:01:48.585Z,30.50
2023-02-11T15:04:25.519Z,24.48
2023-02-11T15:06:53.146Z,37.58
2023-02-11T15:09:26.851Z,49.15
2023-02-11T15:11:55.499Z,105.45
2023-02-11T15:14:25.824Z,192.10
2023-02-11T15:16:54.586Z,56.17
2023-02-11T15:19:26.779Z,53.38
2023-02-11T15:21:54.168Z,79.68
2023-02-11T15:24:26.206Z,75.15
2023-02-11T15:26:57.550Z,154.77
2023-02-11T15:29:26.431Z,51.15
2023-02-11T15:32:15.729Z,22.42
2023-02-11T15:34:45.740Z,19.05
2023-02-11T15:37:14.858Z,19.65
2023-02-11T15:39:42.813Z,17.35
2023-02-11T15:42:24.340Z,17.05
2023-02-11T15:45:09.924Z,18.08
2023-02-11T15:47:36.992Z,15.07
2023-02-11T15:50:07.393Z,17.42
2023-02-11T15:52:34.600Z,15.48
2023-02-11T15:55:02.858Z,14.45
2023-02-11T15:57:29.988Z,20.48
2023-02-11T16:00:04.381Z,20.13
2023-02-11T16:02:45.188Z,16.80
2023-02-11T16:05:31.024Z,24.80
2023-02-11T16:10:28.196Z,170.68
2023-02-11T16:13:15.770Z,172.40
2023-02-11T16:15:49.755Z,40.83
2023-02-11T16:18:39.389Z,20.63
2023-02-11T16:21:16.801Z,19.35
2023-02-11T16:23:50.868Z,17.88
2023-02-11T16:26:25.154Z,18.55
2023-02-11T16:28:52.587Z,25.08
2023-02-11T16:31:20.041Z,22.25
2023-02-11T16:33:47.056Z,28.00
2023-02-11T16:36:19.331Z,29.15
2023-02-11T16:38:46.511Z,25.80
2023-02-11T16:41:13.619Z,204.13
2023-02-11T16:43:40.604Z,170.98
2023-02-11T16:46:08.817Z,74.10
2023-02-11T16:48:35.745Z,40.67
2023-02-11T16:51:03.515Z,23.13
2023-02-11T16:53:32.331Z,20.88
2023-02-11T16:55:59.290Z,21.13
2023-02-11T16:58:27.357Z,24.67
2023-02-11T17:00:57.085Z,27.17
2023-02-11T17:03:29.592Z,40.72
2023-02-11T17:05:57.132Z,38.63
2023-02-11T17:08:24.194Z,45.03
2023-02-11T17:10:52.896Z,57.08
2023-02-11T17:13:20.291Z,53.50
2023-02-11T17:15:47.359Z,42.95
2023-02-11T17:18:14.536Z,45.33
2023-02-11T17:20:41.817Z,49.10
2023-02-11T17:23:09.397Z,44.22
2023-02-11T17:25:39.378Z,49.58
2023-02-11T17:28:12.180Z,59.95
2023-02-11T17:30:41.762Z,69.07
2023-02-11T17:33:09.793Z,48.78
2023-02-11T17:35:41.959Z,46.03
2023-02-11T17:38:11.074Z,43.53
2023-02-11T17:40:38.032Z,47.15
2023-02-11T17:43:05.285Z,45.53
2023-02-11T17:45:33.818Z,39.35
2023-02-11T17:48:00.784Z,45.75
2023-02-11T17:50:29.300Z,58.58
2023-02-11T17:52:56.908Z,39.70
2023-02-11T17:55:23.868Z,42.08
2023-02-11T17:57:50.778Z,38.70
2023-02-11T18:00:18.734Z,37.97
2023-02-11T18:02:47.054Z,51.60
2023-02-11T18:05:14.739Z,39.70
2023-02-11T18:07:42.050Z,36.70
2023-02-11T18:10:09.882Z,28.58
2023-02-11T18:12:37.243Z,21.83
2023-02-11T18:15:04.678Z,25.30
2023-02-11T18:17:31.617Z,23.10
2023-02-11T18:19:59.980Z,22.55
2023-02-11T18:22:27.268Z,44.33
2023-02-11T18:24:54.719Z,28.80
2023-02-11T18:27:22.408Z,25.42
2023-02-11T18:29:49.458Z,22.63
2023-02-11T18:32:16.622Z,27.58
2023-02-11T18:34:43.781Z,31.17
2023-02-11T18:37:13.398Z,81.45
2023-02-11T18:39:40.490Z,41.65
2023-02-11T18:42:07.499Z,42.85
2023-02-11T18:44:34.474Z,48.28
2023-02-11T18:47:01.457Z,33.75
2023-02-11T18:49:28.491Z,28.73
2023-02-11T18:51:55.636Z,33.30
2023-02-11T18:54:24.280Z,25.35
2023-02-11T18:56:51.264Z,24.80
2023-02-11T18:59:18.199Z,27.45
2023-02-11T19:01:46.920Z,25.48
2023-02-11T19:04:18.979Z,25.35
2023-02-11T19:06:48.387Z,27.05
2023-02-11T19:09:17.351Z,33.42
2023-02-11T19:11:54.164Z,30.00
2023-02-11T19:14:23.284Z,30.15
2023-02-11T19:16:52.820Z,32.70
2023-02-11T19:19:22.296Z,27.33
2023-02-11T19:21:49.449Z,27.90
2023-02-11T19:24:19.811Z,25.95
2023-02-11T19:26:49.411Z,25.88
2023-02-11T19:29:16.945Z,25.20
2023-02-11T19:31:44.321Z,27.83
2023-02-11T19:34:13.465Z,26.40
2023-02-11T19:36:40.684Z,23.75
2023-02-11T19:39:08.360Z,21.75
2023-02-11T19:41:35.419Z,21.90
2023-02-11T19:44:05.069Z,23.65
2023-02-11T19:46:33.651Z,23.98
2023-02-11T19:49:01.121Z,23.23
2023-02-11T19:51:28.605Z,26.42
2023-02-11T19:53:55.643Z,28.30
2023-02-11T19:56:23.170Z,36.35
2023-02-11T19:58:50.179Z,28.45
2023-02-11T20:01:20.509Z,33.40
2023-02-11T20:03:50.138Z,27.13
2023-02-11T20:06:19.712Z,28.23
2023-02-11T20:08:46.805Z,50.33
2023-02-11T20:11:15.940Z,44.58
2023-02-11T20:13:43.518Z,36.55
2023-02-11T20:16:12.508Z,35.00
2023-02-11T20:18:41.120Z,36.67
2023-02-11T20:21:09.000Z,38.90
2023-02-11T20:23:36.563Z,34.58
2023-02-11T20:26:07.748Z,26.83
2023-02-11T20:28:34.841Z,32.83
2023-02-11T20:31:02.422Z,31.65
2023-02-11T20:33:31.122Z,33.55
2023-02-11T20:36:01.198Z,30.55
2023-02-11T20:38:28.452Z,30.85
2023-02-11T20:40:55.858Z,28.05
2023-02-11T20:43:22.982Z,30.35
2023-02-11T20:45:50.239Z,28.85
2023-02-11T20:48:17.437Z,27.38
2023-02-11T20:50:46.638Z,25.48
2023-02-11T20:53:16.771Z,32.05
2023-02-11T20:55:43.763Z,25.35
2023-02-11T20:58:10.715Z,21.92
2023-02-11T21:00:38.065Z,26.35
2023-02-11T21:03:05.156Z,27.95
2023-02-11T21:05:32.200Z,30.90
2023-02-11T21:07:59.114Z,30.42
2023-02-11T21:10:27.526Z,27.73
2023-02-11T21:12:54.510Z,28.40
2023-02-11T21:15:24.221Z,26.80
2023-02-11T21:17:51.431Z,34.10
2023-02-11T21:20:19.027Z,24.92
2023-02-11T21:22:45.988Z,29.52
2023-02-11T21:25:13.043Z,28.75
2023-02-11T21:27:41.355Z,26.70
2023-02-11T21:30:09.463Z,31.15
2023-02-11T21:32:36.410Z,28.25
2023-02-11T21:35:03.351Z,27.63
2023-02-11T21:37:30.278Z,29.42
2023-02-11T21:39:57.244Z,28.02
2023-02-11T21:42:24.250Z,21.70
2023-02-11T21:44:52.543Z,28.80
2023-02-11T21:47:19.443Z,30.50
2023-02-11T21:49:46.341Z,25.98
2023-02-11T21:52:13.348Z,32.80
2023-02-11T21:54:40.276Z,30.00
2023-02-11T21:57:07.188Z,27.25
2023-02-11T21:59:34.165Z,31.35
2023-02-11T22:02:02.551Z,32.40
2023-02-11T22:04:29.489Z,32.20
2023-02-11T22:06:56.426Z,31.10
2023-02-11T22:09:23.390Z,28.50
2023-02-11T22:11:50.421Z,30.35
2023-02-11T22:14:17.391Z,25.77
2023-02-11T22:16:45.317Z,32.33
2023-02-11T22:19:14.692Z,28.45
2023-02-11T22:21:43.245Z,29.05
2023-02-11T22:24:10.282Z,27.00
2023-02-11T22:26:38.066Z,34.05
2023-02-11T22:29:05.006Z,31.30
2023-02-11T22:31:33.840Z,32.38
2023-02-11T22:34:02.238Z,32.40
2023-02-11T22:36:32.531Z,32.75
2023-02-11T22:39:01.813Z,39.20
2023-02-11T22:41:29.144Z,32.20
2023-02-11T22:43:56.522Z,45.58
2023-02-11T22:46:23.514Z,40.97
2023-02-11T22:48:51.213Z,48.03
2023-02-11T22:51:20.385Z,45.85
2023-02-11T22:53:53.332Z,55.42
2023-02-11T22:56:20.960Z,49.90
2023-02-11T22:58:48.158Z,35.50
2023-02-11T23:01:15.567Z,39.60
2023-02-11T23:03:42.828Z,50.75
2023-02-11T23:06:10.801Z,44.08
2023-02-11T23:08:38.781Z,47.63
2023-02-11T23:11:09.850Z,32.65
2023-02-11T23:13:39.034Z,35.83
2023-02-11T23:16:08.078Z,27.77
2023-02-11T23:18:36.174Z,32.05
2023-02-11T23:21:05.117Z,28.67
2023-02-11T23:23:32.139Z,28.42
2023-02-11T23:25:59.064Z,27.38
2023-02-11T23:28:27.787Z,29.83
2023-02-11T23:30:55.084Z,20.88
2023-02-11T23:33:23.044Z,23.33
2023-02-11T23:35:49.964Z,22.90
2023-02-11T23:38:16.917Z,25.52
2023-02-11T23:40:43.884Z,25.08
2023-02-11T23:43:10.780Z,27.77
2023-02-11T23:45:39.063Z,25.38
2023-02-11T23:48:05.958Z,26.50
2023-02-11T23:50:33.880Z,22.35
2023-02-11T23:53:00.794Z,25.90
2023-02-11T23:55:27.709Z,29.92
2023-02-11T23:57:54.608Z,24.38
